Time;durP1;ratioP1;P1;durP2;ratioP2;P2;SDS_P1;SDS_P2;PMS_P1;PMS_P2;Temp;Humidity;BMP_temperature;BMP_pressure;BME280_temperature;BME280_humidity;BME280_pressure;Samples;Min_cycle;Max_cycle;Signal;HPM_P1;HPM_P2
2022/11/02 00:01:28;;;;;;;;;;;24.80;36.70;;;;;;5059981;28;19952;-76
2022/11/02 00:03:55;;;;;;;;;;;24.70;36.90;;;;;;5076440;28;19971;-76
2022/11/02 00:06:22;;;;;;;;;;;24.70;37.10;;;;;;5060293;28;19928;-76
2022/11/02 00:08:48;;;;;;;;;;;24.60;37.10;;;;;;5061599;28;19920;-76
2022/11/02 00:11:15;;;;;;;;;;;24.60;37.20;;;;;;5055332;28;20335;-76
2022/11/02 00:13:42;;;;;;;;;;;24.60;37.40;;;;;;5059103;28;19924;-76
2022/11/02 00:16:09;;;;;;;;;;;24.50;37.40;;;;;;5057886;28;20391;-76
2022/11/02 00:18:38;;;;;;;;;;;24.40;37.40;;;;;;5077559;28;19928;-76
2022/11/02 00:21:05;;;;;;;;;;;24.40;37.40;;;;;;5056968;28;19920;-76
2022/11/02 00:23:32;;;;;;;;;;;24.30;37.40;;;;;;5060128;28;20011;-76
2022/11/02 00:26:01;;;;;;;;;;;24.30;37.60;;;;;;5075795;28;19964;-76
2022/11/02 00:28:28;;;;;;;;;;;24.30;37.70;;;;;;5077859;28;19928;-76
2022/11/02 00:30:55;;;;;;;;;;;24.30;37.80;;;;;;5057385;28;19920;-76
2022/11/02 00:33:21;;;;;;;;;;;24.20;37.80;;;;;;5057578;28;19920;-75
2022/11/02 00:35:50;;;;;;;;;;;24.20;37.80;;;;;;5076177;28;19924;-76
2022/11/02 00:38:16;;;;;;;;;;;24.10;37.80;;;;;;5056926;28;19970;-76
2022/11/02 00:40:44;;;;;;;;;;;24.10;37.90;;;;;;5075181;28;19943;-75
2022/11/02 00:43:11;;;;;;;;;;;24.10;37.90;;;;;;5056904;28;19920;-75
2022/11/02 00:45:37;;;;;;;;;;;24.10;38.00;;;;;;5058664;28;19920;-76
2022/11/02 00:48:04;;;;;;;;;;;24.10;38.10;;;;;;5074024;28;19960;-75
2022/11/02 00:50:31;;;;;;;;;;;24.00;38.00;;;;;;5057319;28;19974;-75
2022/11/02 00:52:59;;;;;;;;;;;24.00;38.10;;;;;;5056366;28;19964;-76
2022/11/02 00:55:26;;;;;;;;;;;24.00;38.20;;;;;;5058164;28;19924;-76
2022/11/02 00:57:54;;;;;;;;;;;24.00;38.20;;;;;;5055715;28;19921;-76
2022/11/02 01:00:21;;;;;;;;;;;23.90;38.20;;;;;;5076035;28;19921;-76
2022/11/02 01:02:51;;;;;;;;;;;23.90;38.20;;;;;;5055746;28;19920;-75
2022/11/02 01:05:17;;;;;;;;;;;23.90;38.30;;;;;;5074441;28;19920;-75
2022/11/02 01:07:44;;;;;;;;;;;23.90;38.40;;;;;;5055670;28;19959;-75
2022/11/02 01:10:12;;;;;;;;;;;23.90;38.40;;;;;;5075967;28;19966;-76
2022/11/02 01:12:39;;;;;;;;;;;23.90;38.40;;;;;;5055895;28;19950;-75
2022/11/02 01:15:06;;;;;;;;;;;23.90;38.40;;;;;;5057701;28;19928;-75
2022/11/02 01:17:33;;;;;;;;;;;23.80;38.30;;;;;;5056672;28;19920;-75
2022/11/02 01:20:02;;;;;;;;;;;23.80;38.40;;;;;;5073675;28;19964;-75
2022/11/02 01:22:28;;;;;;;;;;;23.80;38.40;;;;;;5075989;28;19920;-75
2022/11/02 01:24:55;;;;;;;;;;;23.80;38.40;;;;;;5055417;28;19924;-72
2022/11/02 01:27:23;;;;;;;;;;;23.80;38.50;;;;;;5075953;28;19921;-76
2022/11/02 01:29:50;;;;;;;;;;;23.80;38.50;;;;;;5073498;28;19967;-75
2022/11/02 01:32:17;;;;;;;;;;;23.80;38.60;;;;;;5036853;28;19963;-76
2022/11/02 01:34:43;;;;;;;;;;;23.80;38.60;;;;;;5045268;28;19921;-75
2022/11/02 01:37:10;;;;;;;;;;;23.80;38.60;;;;;;5058555;28;19920;-75
2022/11/02 01:39:37;;;;;;;;;;;23.80;38.60;;;;;;5043070;28;19925;-75
2022/11/02 01:42:04;;;;;;;;;;;23.70;38.50;;;;;;5037838;28;19921;-75
2022/11/02 01:44:32;;;;;;;;;;;23.80;38.60;;;;;;5048141;28;19921;-75
2022/11/02 01:47:00;;;;;;;;;;;23.70;38.60;;;;;;5056867;28;19920;-75
2022/11/02 01:49:27;;;;;;;;;;;23.70;38.70;;;;;;5062394;28;19931;-75
2022/11/02 01:51:55;;;;;;;;;;;23.70;38.70;;;;;;5076071;28;19960;-75
2022/11/02 01:54:22;;;;;;;;;;;23.70;38.80;;;;;;5078773;28;19928;-75
2022/11/02 01:56:50;;;;;;;;;;;23.70;38.70;;;;;;5070108;28;19939;-74
2022/11/02 01:59:18;;;;;;;;;;;23.70;38.80;;;;;;5057561;28;20033;-75
2022/11/02 02:01:46;;;;;;;;;;;23.70;38.80;;;;;;5074908;28;19921;-76
2022/11/02 02:04:13;;;;;;;;;;;23.60;38.80;;;;;;5075466;28;19946;-76
2022/11/02 02:06:39;;;;;;;;;;;23.70;38.80;;;;;;5059589;28;19960;-75
2022/11/02 02:09:06;;;;;;;;;;;23.60;38.70;;;;;;5060094;28;19920;-75
2022/11/02 02:11:33;;;;;;;;;;;23.60;38.70;;;;;;5054031;28;19920;-75
2022/11/02 02:14:04;;;;;;;;;;;23.60;38.70;;;;;;5075817;28;19925;-76
2022/11/02 02:16:51;;;;;;;;;;;23.60;38.80;;;;;;5073675;28;20009;-75
2022/11/02 02:19:42;;;;;;;;;;;23.60;38.80;;;;;;5054740;28;19959;-75
2022/11/02 02:22:23;;;;;;;;;;;23.60;38.80;;;;;;5071947;28;19921;-76
2022/11/02 02:24:51;;;;;;;;;;;23.60;38.80;;;;;;5056581;28;19921;-75
2022/11/02 02:27:19;;;;;;;;;;;23.60;38.90;;;;;;5056960;28;19920;-76
2022/11/02 02:29:49;;;;;;;;;;;23.60;38.90;;;;;;5055379;28;20282;-75
2022/11/02 02:32:16;;;;;;;;;;;23.60;38.90;;;;;;5074460;28;19920;-76
2022/11/02 02:34:45;;;;;;;;;;;23.60;38.90;;;;;;5054929;28;19928;-75
2022/11/02 02:37:14;;;;;;;;;;;23.60;38.90;;;;;;5056994;28;19966;-76
2022/11/02 02:39:41;;;;;;;;;;;23.60;39.00;;;;;;5054755;28;20061;-75
2022/11/02 02:42:13;;;;;;;;;;;23.50;39.00;;;;;;5074915;28;19928;-75
2022/11/02 02:44:41;;;;;;;;;;;23.50;38.90;;;;;;5056188;28;19987;-76
2022/11/02 02:47:10;;;;;;;;;;;23.50;39.00;;;;;;5052905;28;19928;-75
2022/11/02 02:49:38;;;;;;;;;;;23.50;39.00;;;;;;5056573;28;19924;-76
2022/11/02 02:52:04;;;;;;;;;;;23.50;39.00;;;;;;5053960;28;20237;-75
2022/11/02 02:54:31;;;;;;;;;;;23.50;39.00;;;;;;5055628;28;19920;-66
2022/11/02 02:57:04;;;;;;;;;;;23.50;39.00;;;;;;5055923;28;19972;-74
2022/11/02 02:59:31;;;;;;;;;;;23.50;39.10;;;;;;5055666;28;19921;-75
2022/11/02 03:01:58;;;;;;;;;;;23.50;39.10;;;;;;5056880;28;20011;-75
2022/11/02 03:04:26;;;;;;;;;;;23.50;39.10;;;;;;5054586;28;19959;-75
2022/11/02 03:06:54;;;;;;;;;;;23.50;39.70;;;;;;5056608;28;19920;-75
2022/11/02 03:09:22;;;;;;;;;;;23.50;39.20;;;;;;5055103;28;20341;-75
2022/11/02 03:11:51;;;;;;;;;;;23.50;39.20;;;;;;5036905;28;19920;-75
2022/11/02 03:14:21;;;;;;;;;;;23.50;39.20;;;;;;5055994;28;20066;-76
2022/11/02 03:16:55;;;;;;;;;;;23.50;39.30;;;;;;5070836;28;19952;-75
2022/11/02 03:19:23;;;;;;;;;;;23.50;39.40;;;;;;5073405;28;19927;-75
2022/11/02 03:21:52;;;;;;;;;;;23.50;39.40;;;;;;5071646;28;19921;-75
2022/11/02 03:24:19;;;;;;;;;;;23.50;39.30;;;;;;5057217;28;19920;-75
2022/11/02 03:26:47;;;;;;;;;;;23.50;39.40;;;;;;5071799;28;19948;-75
2022/11/02 03:29:14;;;;;;;;;;;23.50;39.40;;;;;;5055170;28;19921;-75
2022/11/02 03:31:41;;;;;;;;;;;23.50;39.40;;;;;;5050887;28;19920;-75
2022/11/02 03:34:11;;;;;;;;;;;23.50;39.50;;;;;;5065270;28;19920;-76
2022/11/02 03:36:39;;;;;;;;;;;23.50;39.50;;;;;;5077890;28;20015;-75
2022/11/02 03:39:08;;;;;;;;;;;23.40;39.40;;;;;;5057184;28;19921;-75
2022/11/02 03:41:37;;;;;;;;;;;23.40;39.40;;;;;;5057391;28;19921;-75
2022/11/02 03:44:04;;;;;;;;;;;23.40;39.40;;;;;;5073218;28;19928;-75
2022/11/02 03:46:31;;;;;;;;;;;23.40;39.50;;;;;;5059816;28;19927;-76
2022/11/02 03:48:58;;;;;;;;;;;23.40;39.50;;;;;;5073489;28;19967;-75
2022/11/02 03:51:25;;;;;;;;;;;23.40;39.60;;;;;;5059315;28;20023;-76
2022/11/02 03:53:53;;;;;;;;;;;23.40;39.60;;;;;;5075745;28;19983;-76
2022/11/02 03:56:22;;;;;;;;;;;23.40;39.60;;;;;;5075456;28;19920;-76
2022/11/02 03:58:48;;;;;;;;;;;23.40;39.60;;;;;;5075650;28;19998;-75
2022/11/02 04:01:15;;;;;;;;;;;23.40;39.70;;;;;;5056836;28;19952;-75
2022/11/02 04:03:43;;;;;;;;;;;23.40;39.70;;;;;;5059233;28;19921;-75
2022/11/02 04:06:11;;;;;;;;;;;23.40;39.80;;;;;;5074547;28;19966;-75
2022/11/02 04:08:39;;;;;;;;;;;23.40;39.80;;;;;;5039916;28;19931;-75
2022/11/02 04:16:37;;;;;;;;;;;23.40;39.90;;;;;;5077872;28;19920;-75
2022/11/02 04:27:16;;;;;;;;;;;23.40;40.00;;;;;;5067787;28;19920;-75
2022/11/02 04:29:44;;;;;;;;;;;23.40;40.00;;;;;;5058941;28;19960;-75
2022/11/02 04:32:13;;;;;;;;;;;23.40;40.00;;;;;;5058796;28;19920;-74
2022/11/02 04:34:39;;;;;;;;;;;23.40;40.00;;;;;;5062502;28;20018;-75
2022/11/02 04:38:39;;;;;;;;;;;23.30;39.90;;;;;;5062741;28;19950;-75
2022/11/02 04:39:52;;;;;;;;;;;23.30;40.00;;;;;;5066785;28;19920;-75
2022/11/02 04:42:18;;;;;;;;;;;23.30;40.00;;;;;;5060797;28;20003;-74
2022/11/02 04:44:46;;;;;;;;;;;23.30;40.00;;;;;;5080948;28;19920;-75
2022/11/02 04:47:13;;;;;;;;;;;23.30;40.00;;;;;;5060795;28;19993;-75
2022/11/02 04:49:40;;;;;;;;;;;23.30;40.00;;;;;;5079695;28;19947;-75
2022/11/02 04:52:06;;;;;;;;;;;23.30;40.00;;;;;;5057917;28;19921;-74
2022/11/02 04:54:33;;;;;;;;;;;23.30;40.00;;;;;;5079288;28;19920;-75
2022/11/02 04:57:00;;;;;;;;;;;23.30;40.00;;;;;;5058495;28;19920;-74
2022/11/02 04:59:26;;;;;;;;;;;23.30;40.00;;;;;;5077391;28;19921;-75
2022/11/02 05:01:54;;;;;;;;;;;23.30;40.10;;;;;;5078860;28;19973;-75
2022/11/02 05:04:21;;;;;;;;;;;23.30;40.00;;;;;;5061098;28;19990;-74
2022/11/02 05:06:48;;;;;;;;;;;23.30;40.00;;;;;;5060647;28;19932;-75
2022/11/02 05:09:15;;;;;;;;;;;23.30;40.10;;;;;;5062415;28;19920;-75
2022/11/02 05:11:41;;;;;;;;;;;23.30;40.10;;;;;;5058613;28;19927;-75
2022/11/02 05:14:08;;;;;;;;;;;23.30;40.00;;;;;;5056539;28;19970;-75
2022/11/02 05:16:35;;;;;;;;;;;23.30;40.10;;;;;;5073847;28;20359;-75
2022/11/02 05:19:03;;;;;;;;;;;23.30;40.10;;;;;;5075383;28;19955;-75
2022/11/02 05:21:30;;;;;;;;;;;23.30;40.10;;;;;;5054221;28;19920;-76
2022/11/02 05:23:57;;;;;;;;;;;23.30;40.10;;;;;;5058285;28;20376;-78
2022/11/02 05:26:23;;;;;;;;;;;23.30;40.10;;;;;;5060350;28;19956;-76
2022/11/02 05:28:51;;;;;;;;;;;23.30;40.10;;;;;;5043005;28;19967;-76
2022/11/02 05:31:18;;;;;;;;;;;23.30;40.10;;;;;;5072606;28;19925;-74
2022/11/02 05:33:44;;;;;;;;;;;23.30;40.10;;;;;;5074454;28;19924;-76
2022/11/02 05:36:12;;;;;;;;;;;23.30;40.20;;;;;;5060435;28;20007;-76
2022/11/02 05:38:39;;;;;;;;;;;23.30;40.20;;;;;;5051494;28;19978;-74
2022/11/02 05:41:06;;;;;;;;;;;23.30;40.20;;;;;;5057183;28;19920;-74
2022/11/02 05:43:32;;;;;;;;;;;23.30;40.20;;;;;;5072296;28;19951;-74
2022/11/02 05:46:00;;;;;;;;;;;23.30;40.20;;;;;;5074287;28;20011;-75
2022/11/02 05:48:26;;;;;;;;;;;23.30;40.20;;;;;;5036199;28;19936;-74
2022/11/02 05:50:54;;;;;;;;;;;23.30;40.20;;;;;;5073081;28;20041;-74
2022/11/02 05:53:22;;;;;;;;;;;23.30;40.20;;;;;;5072723;28;20341;-74
2022/11/02 05:55:49;;;;;;;;;;;23.30;40.20;;;;;;5056036;28;19921;-75
2022/11/02 05:58:16;;;;;;;;;;;23.20;40.10;;;;;;5055606;28;19970;-75
2022/11/02 06:00:43;;;;;;;;;;;23.30;40.20;;;;;;5074524;28;20007;-75
2022/11/02 06:03:09;;;;;;;;;;;23.30;40.30;;;;;;5058240;28;19925;-75
2022/11/02 06:05:36;;;;;;;;;;;23.20;40.10;;;;;;5039606;28;20019;-75
2022/11/02 06:08:03;;;;;;;;;;;23.20;40.10;;;;;;5051341;28;19920;-75
2022/11/02 06:10:31;;;;;;;;;;;23.20;40.20;;;;;;5053253;28;19927;-74
2022/11/02 06:12:58;;;;;;;;;;;23.20;40.80;;;;;;5056974;28;19925;-76
2022/11/02 06:15:24;;;;;;;;;;;23.20;40.20;;;;;;5056033;28;19956;-76
2022/11/02 06:17:51;;;;;;;;;;;23.20;40.20;;;;;;5073320;28;19955;-72
2022/11/02 06:20:18;;;;;;;;;;;23.20;40.30;;;;;;5050355;28;20105;-73
2022/11/02 06:22:45;;;;;;;;;;;23.20;40.30;;;;;;5053085;28;20363;-73
2022/11/02 06:25:11;;;;;;;;;;;23.20;40.30;;;;;;5052663;28;20321;-77
2022/11/02 06:27:41;;;;;;;;;;;23.20;40.40;;;;;;5045130;28;19931;-74
2022/11/02 06:30:08;;;;;;;;;;;23.20;40.40;;;;;;5056532;28;19921;-75
2022/11/02 06:32:34;;;;;;;;;;;23.20;40.50;;;;;;5054042;28;19971;-75
2022/11/02 06:35:01;;;;;;;;;;;23.20;40.60;;;;;;5057658;28;19970;-76
2022/11/02 06:37:28;;;;;;;;;;;23.20;40.60;;;;;;5054802;28;19952;-76
2022/11/02 06:39:55;;;;;;;;;;;23.20;40.60;;;;;;5057163;28;19942;-75
2022/11/02 06:42:21;;;;;;;;;;;23.20;40.70;;;;;;5053905;28;19971;-76
2022/11/02 06:44:50;;;;;;;;;;;23.30;40.80;;;;;;5057299;28;19964;-76
2022/11/02 06:47:17;;;;;;;;;;;23.30;40.80;;;;;;5056209;28;20366;-75
2022/11/02 06:49:43;;;;;;;;;;;23.20;40.70;;;;;;5055481;28;19921;-75
2022/11/02 06:52:10;;;;;;;;;;;23.30;40.90;;;;;;5056369;28;19921;-76
2022/11/02 06:54:37;;;;;;;;;;;23.20;40.80;;;;;;5053843;28;19928;-76
2022/11/02 06:57:03;;;;;;;;;;;23.30;41.50;;;;;;5056186;28;19951;-75
2022/11/02 06:59:30;;;;;;;;;;;23.30;40.90;;;;;;5054104;28;20373;-75
2022/11/02 07:01:58;;;;;;;;;;;23.30;40.90;;;;;;5056656;28;20019;-76
2022/11/02 07:04:25;;;;;;;;;;;23.30;41.00;;;;;;5052846;28;19920;-77
2022/11/02 07:06:51;;;;;;;;;;;23.20;40.80;;;;;;5076071;28;20031;-75
2022/11/02 07:09:18;;;;;;;;;;;23.30;41.00;;;;;;5059377;28;19921;-76
2022/11/02 07:11:45;;;;;;;;;;;23.30;41.00;;;;;;5058958;28;19933;-75
2022/11/02 07:14:12;;;;;;;;;;;23.30;41.00;;;;;;5057008;28;19982;-76
2022/11/02 07:16:38;;;;;;;;;;;23.30;41.00;;;;;;5041573;28;19925;-75
2022/11/02 07:19:06;;;;;;;;;;;23.30;41.00;;;;;;5040035;28;19920;-77
2022/11/02 07:21:33;;;;;;;;;;;23.30;41.00;;;;;;5037167;28;20015;-76
2022/11/02 07:24:00;;;;;;;;;;;23.20;40.90;;;;;;5055061;28;19921;-76
2022/11/02 07:26:27;;;;;;;;;;;23.30;41.00;;;;;;5075935;28;19975;-76
2022/11/02 07:28:53;;;;;;;;;;;23.30;41.00;;;;;;5058830;28;19978;-76
2022/11/02 07:31:20;;;;;;;;;;;23.30;41.00;;;;;;5056292;28;19955;-76
2022/11/02 07:33:47;;;;;;;;;;;23.30;41.00;;;;;;5054168;28;19933;-76
2022/11/02 07:36:15;;;;;;;;;;;23.20;40.90;;;;;;5058585;28;19997;-70
2022/11/02 07:38:42;;;;;;;;;;;23.20;40.90;;;;;;5076417;28;19920;-67
2022/11/02 07:41:08;;;;;;;;;;;23.30;41.00;;;;;;5057775;28;19947;-68
2022/11/02 07:43:35;;;;;;;;;;;23.30;41.10;;;;;;5075824;28;19942;-68
2022/11/02 07:46:02;;;;;;;;;;;23.30;41.20;;;;;;5076065;28;19960;-68
2022/11/02 07:48:29;;;;;;;;;;;23.20;41.20;;;;;;5077955;28;19925;-68
2022/11/02 07:50:56;;;;;;;;;;;23.20;41.20;;;;;;5057207;28;19921;-68
2022/11/02 07:53:25;;;;;;;;;;;23.20;41.20;;;;;;5059939;28;19974;-76
2022/11/02 07:55:51;;;;;;;;;;;23.20;41.20;;;;;;5051971;28;19920;-75
2022/11/02 07:58:18;;;;;;;;;;;23.10;41.20;;;;;;5054490;28;19959;-68
2022/11/02 08:00:45;;;;;;;;;;;23.10;41.00;;;;;;5056586;28;19967;-70
2022/11/02 08:03:13;;;;;;;;;;;23.10;40.90;;;;;;5058281;28;19983;-69
2022/11/02 08:05:40;;;;;;;;;;;23.10;40.80;;;;;;5073806;28;19927;-72
2022/11/02 08:08:08;;;;;;;;;;;23.10;40.80;;;;;;5057278;28;19920;-75
2022/11/02 08:10:36;;;;;;;;;;;23.10;40.60;;;;;;5039218;28;20440;-75
2022/11/02 08:13:03;;;;;;;;;;;23.10;40.60;;;;;;5039810;28;19921;-74
2022/11/02 08:15:30;;;;;;;;;;;23.10;40.50;;;;;;5058870;28;19959;-74
2022/11/02 08:18:00;;;;;;;;;;;23.10;40.40;;;;;;5056368;28;19928;-74
2022/11/02 08:20:26;;;;;;;;;;;23.00;40.40;;;;;;5060072;28;20330;-74
2022/11/02 08:22:53;;;;;;;;;;;23.00;40.30;;;;;;5053734;28;19920;-74
2022/11/02 08:25:20;;;;;;;;;;;23.00;40.30;;;;;;5058836;28;19938;-73
2022/11/02 08:27:48;;;;;;;;;;;23.00;40.20;;;;;;5078918;28;19963;-74
2022/11/02 08:30:15;;;;;;;;;;;23.00;40.10;;;;;;5064349;28;19924;-73
2022/11/02 08:32:41;;;;;;;;;;;23.00;39.90;;;;;;5059886;28;19921;-74
2022/11/02 08:35:08;;;;;;;;;;;22.90;39.80;;;;;;5074472;28;19948;-73
2022/11/02 08:37:35;;;;;;;;;;;22.90;39.80;;;;;;5057436;28;19920;-74
2022/11/02 08:40:02;;;;;;;;;;;22.90;39.80;;;;;;5051862;28;19924;-74
2022/11/02 08:42:29;;;;;;;;;;;22.90;39.70;;;;;;5058870;28;19971;-74
2022/11/02 08:44:57;;;;;;;;;;;22.90;39.60;;;;;;5057500;28;19954;-74
2022/11/02 08:47:23;;;;;;;;;;;22.90;39.60;;;;;;5076646;28;20362;-74
2022/11/02 08:49:51;;;;;;;;;;;22.90;39.60;;;;;;5070504;28;19943;-74
2022/11/02 08:52:17;;;;;;;;;;;22.90;39.60;;;;;;5075217;28;19928;-72
2022/11/02 08:54:44;;;;;;;;;;;22.90;39.50;;;;;;5051599;28;19921;-71
2022/11/02 08:57:10;;;;;;;;;;;22.90;39.50;;;;;;5055503;28;19927;-73
2022/11/02 08:59:37;;;;;;;;;;;22.90;39.50;;;;;;5056292;28;20378;-72
2022/11/02 09:02:05;;;;;;;;;;;22.90;39.50;;;;;;5064110;28;19938;-75
2022/11/02 09:04:33;;;;;;;;;;;22.90;39.50;;;;;;5075023;28;20305;-74
2022/11/02 09:07:00;;;;;;;;;;;22.80;39.30;;;;;;5057090;28;19946;-74
2022/11/02 09:09:26;;;;;;;;;;;22.80;39.30;;;;;;5069906;28;19947;-85
2022/11/02 09:11:53;;;;;;;;;;;22.80;39.20;;;;;;5055823;28;19920;-73
2022/11/02 09:14:20;;;;;;;;;;;22.80;39.20;;;;;;5042512;28;20366;-73
2022/11/02 09:16:47;;;;;;;;;;;22.80;39.30;;;;;;5050919;28;20007;-75
2022/11/02 09:19:15;;;;;;;;;;;22.80;39.30;;;;;;5055450;28;19927;-73
2022/11/02 09:21:41;;;;;;;;;;;22.80;39.30;;;;;;5055720;28;19973;-73
2022/11/02 09:24:12;;;;;;;;;;;22.80;39.30;;;;;;5053426;28;19927;-74
2022/11/02 09:26:38;;;;;;;;;;;22.80;39.30;;;;;;5053817;28;19921;-74
2022/11/02 09:29:05;;;;;;;;;;;22.80;39.30;;;;;;5054015;28;19962;-73
2022/11/02 09:31:32;;;;;;;;;;;22.80;39.20;;;;;;5055825;28;20011;-73
2022/11/02 09:33:58;;;;;;;;;;;22.80;39.10;;;;;;5055934;28;20343;-73
2022/11/02 09:36:26;;;;;;;;;;;22.80;39.10;;;;;;5058445;28;19921;-79
2022/11/02 09:38:53;;;;;;;;;;;22.80;39.10;;;;;;5057372;28;19920;-77
2022/11/02 09:41:21;;;;;;;;;;;22.80;39.30;;;;;;5075087;28;20229;-77
2022/11/02 09:43:50;;;;;;;;;;;22.80;45.80;;;;;;5054234;28;19951;-75
2022/11/02 09:46:17;;;;;;;;;;;22.90;45.70;;;;;;5073468;28;19920;-73
2022/11/02 09:48:45;;;;;;;;;;;22.80;45.50;;;;;;5054383;28;19951;-77
2022/11/02 09:51:12;;;;;;;;;;;22.80;39.00;;;;;;5056809;28;19920;-75
2022/11/02 09:53:41;;;;;;;;;;;22.80;39.00;;;;;;5071374;28;19921;-82
2022/11/02 09:56:08;;;;;;;;;;;22.80;39.00;;;;;;5059166;28;19950;-77
2022/11/02 09:58:36;;;;;;;;;;;22.80;39.00;;;;;;5069446;28;19944;-76
2022/11/02 10:01:05;;;;;;;;;;;22.80;38.90;;;;;;5041452;28;19943;-77
2022/11/02 10:03:35;;;;;;;;;;;22.80;38.90;;;;;;5054283;28;19921;-76
2022/11/02 10:06:02;;;;;;;;;;;22.80;38.90;;;;;;5080397;28;20369;-77
2022/11/02 10:08:31;;;;;;;;;;;22.70;38.80;;;;;;5061469;28;19920;-78
2022/11/02 10:11:01;;;;;;;;;;;22.80;38.90;;;;;;5079491;28;19932;-77
2022/11/02 10:13:31;;;;;;;;;;;22.70;38.80;;;;;;5059265;28;19927;-75
2022/11/02 10:16:00;;;;;;;;;;;22.80;38.90;;;;;;5059601;28;19931;-77
2022/11/02 10:18:27;;;;;;;;;;;22.70;38.90;;;;;;5043772;28;20309;-75
2022/11/02 10:20:55;;;;;;;;;;;22.70;38.90;;;;;;5048664;28;19974;-75
2022/11/02 10:23:22;;;;;;;;;;;22.70;39.10;;;;;;5063250;28;19920;-77
2022/11/02 10:25:49;;;;;;;;;;;22.70;39.30;;;;;;5059488;28;19967;-73
2022/11/02 10:28:18;;;;;;;;;;;22.70;39.50;;;;;;5060311;28;19924;-79
2022/11/02 10:30:45;;;;;;;;;;;22.70;39.60;;;;;;5058168;28;20022;-74
2022/11/02 10:33:13;;;;;;;;;;;22.70;39.80;;;;;;5057858;28;20258;-77
2022/11/02 10:35:42;;;;;;;;;;;22.70;40.00;;;;;;5062067;28;19920;-75
2022/11/02 10:38:12;;;;;;;;;;;22.70;40.10;;;;;;5038709;28;19921;-75
2022/11/02 10:40:45;;;;;;;;;;;22.70;40.20;;;;;;5062087;28;19990;-76
2022/11/02 10:43:15;;;;;;;;;;;22.70;40.30;;;;;;5058483;28;19924;-75
2022/11/02 10:45:47;;;;;;;;;;;22.70;40.30;;;;;;5063610;28;19960;-75
2022/11/02 10:48:16;;;;;;;;;;;22.70;40.30;;;;;;5077567;28;19927;-73
2022/11/02 10:50:46;;;;;;;;;;;22.70;40.40;;;;;;5060336;28;19920;-72
2022/11/02 10:53:13;;;;;;;;;;;22.70;40.40;;;;;;5061057;28;19952;-72
2022/11/02 10:55:41;;;;;;;;;;;22.70;40.40;;;;;;5065686;28;19927;-76
2022/11/02 10:58:09;;;;;;;;;;;22.70;40.40;;;;;;5049312;28;19920;-78
2022/11/02 11:00:36;;;;;;;;;;;22.70;40.30;;;;;;5063796;28;20251;-75
2022/11/02 11:03:11;;;;;;;;;;;22.90;40.80;;;;;;5059689;28;19974;-72
2022/11/02 11:05:38;;;;;;;;;;;23.80;40.30;;;;;;5075163;28;19950;-68
2022/11/02 11:08:05;;;;;;;;;;;24.60;39.60;;;;;;5058289;28;19996;-74
2022/11/02 11:10:33;;;;;;;;;;;25.40;38.30;;;;;;5077498;28;19943;-78
2022/11/02 11:13:00;;;;;;;;;;;26.30;37.10;;;;;;5057736;28;19921;-67
2022/11/02 11:15:27;;;;;;;;;;;26.90;36.20;;;;;;5074024;28;19940;-77
2022/11/02 11:17:54;;;;;;;;;;;27.40;35.50;;;;;;5067973;28;19955;-76
2022/11/02 11:20:32;;;;;;;;;;;27.80;34.80;;;;;;5083218;28;20011;-77
2022/11/02 11:23:10;;;;;;;;;;;28.20;34.00;;;;;;5062564;28;19969;-69
2022/11/02 11:25:36;;;;;;;;;;;28.60;33.50;;;;;;5057752;28;19921;-70
2022/11/02 11:28:13;;;;;;;;;;;29.00;32.90;;;;;;5059723;28;19959;-71
2022/11/02 11:30:40;;;;;;;;;;;29.70;31.50;;;;;;5059004;28;20278;-70
2022/11/02 11:33:07;;;;;;;;;;;30.30;31.00;;;;;;5038670;28;19960;-70
2022/11/02 11:35:35;;;;;;;;;;;30.80;30.30;;;;;;5059763;28;19968;-69
2022/11/02 11:38:02;;;;;;;;;;;31.30;29.90;;;;;;5059433;28;19924;-71
2022/11/02 11:40:31;;;;;;;;;;;31.70;29.40;;;;;;5058316;28;19920;-70
2022/11/02 11:42:57;;;;;;;;;;;32.10;29.10;;;;;;5060022;28;19943;-70
2022/11/02 11:45:26;;;;;;;;;;;32.40;28.70;;;;;;5057876;28;19921;-70
2022/11/02 11:47:53;;;;;;;;;;;32.60;28.30;;;;;;5057171;28;20019;-70
2022/11/02 11:50:20;;;;;;;;;;;32.80;28.10;;;;;;5075808;28;19920;-70
2022/11/02 11:52:48;;;;;;;;;;;33.10;28.00;;;;;;5056889;28;19966;-70
2022/11/02 11:55:22;;;;;;;;;;;33.10;27.70;;;;;;5075214;28;19946;-70
2022/11/02 11:57:54;;;;;;;;;;;33.30;27.60;;;;;;5076783;28;19920;-72
2022/11/02 12:00:25;;;;;;;;;;;33.40;27.60;;;;;;5056954;28;19942;-73
2022/11/02 12:03:01;;;;;;;;;;;33.50;27.60;;;;;;5082020;28;20011;-73
2022/11/02 12:05:28;;;;;;;;;;;33.70;27.40;;;;;;5066495;28;19952;-74
2022/11/02 12:08:03;;;;;;;;;;;33.90;27.30;;;;;;5043972;28;19951;-74
2022/11/02 12:10:37;;;;;;;;;;;34.00;27.30;;;;;;5061354;28;19924;-74
2022/11/02 12:13:06;;;;;;;;;;;34.20;27.00;;;;;;5078138;28;19921;-76
2022/11/02 12:15:37;;;;;;;;;;;34.30;27.10;;;;;;5059323;28;20366;-75
2022/11/02 12:18:07;;;;;;;;;;;34.40;26.90;;;;;;5056587;28;19920;-72
2022/11/02 12:20:48;;;;;;;;;;;34.40;26.80;;;;;;5058046;28;19942;-75
2022/11/02 12:23:21;;;;;;;;;;;34.50;26.70;;;;;;5052896;28;19928;-72
2022/11/02 12:25:49;;;;;;;;;;;34.50;26.70;;;;;;5059535;28;19927;-71
2022/11/02 12:28:23;;;;;;;;;;;34.50;26.70;;;;;;5054488;28;19950;-71
2022/11/02 12:30:51;;;;;;;;;;;34.60;26.70;;;;;;5075016;28;19920;-71
2022/11/02 12:33:22;;;;;;;;;;;34.60;26.70;;;;;;5075791;28;20019;-71
2022/11/02 12:36:02;;;;;;;;;;;34.60;26.70;;;;;;5056260;28;20028;-71
2022/11/02 12:38:50;;;;;;;;;;;34.70;26.70;;;;;;5056491;28;19920;-71
2022/11/02 12:41:20;;;;;;;;;;;34.70;26.60;;;;;;5070850;28;19920;-72
2022/11/02 12:43:47;;;;;;;;;;;34.80;26.60;;;;;;5073235;28;19921;-72
2022/11/02 12:46:17;;;;;;;;;;;34.80;26.50;;;;;;5057234;28;19959;-75
2022/11/02 12:48:46;;;;;;;;;;;34.80;26.60;;;;;;5074306;28;19925;-70
2022/11/02 12:51:14;;;;;;;;;;;34.80;26.40;;;;;;5057820;28;19924;-73
2022/11/02 12:53:43;;;;;;;;;;;34.80;26.50;;;;;;5055724;28;20023;-72
2022/11/02 12:56:11;;;;;;;;;;;34.80;26.40;;;;;;5074341;28;19920;-73
2022/11/02 12:58:40;;;;;;;;;;;34.90;26.40;;;;;;5057166;28;19956;-71
2022/11/02 13:01:08;;;;;;;;;;;34.90;26.40;;;;;;5056538;28;19920;-72
2022/11/02 13:03:35;;;;;;;;;;;35.00;26.40;;;;;;5057834;28;19968;-72
2022/11/02 13:06:05;;;;;;;;;;;35.00;26.30;;;;;;5055838;28;19959;-72
2022/11/02 13:08:34;;;;;;;;;;;35.00;26.30;;;;;;5055964;28;20197;-71
2022/11/02 13:11:03;;;;;;;;;;;35.00;26.30;;;;;;5076348;28;19921;-73
2022/11/02 13:13:30;;;;;;;;;;;35.00;26.30;;;;;;5056588;28;19999;-71
2022/11/02 13:15:59;;;;;;;;;;;35.00;26.40;;;;;;5056509;28;20004;-70
2022/11/02 13:18:26;;;;;;;;;;;35.00;26.30;;;;;;5078000;28;19974;-73
2022/11/02 13:20:54;;;;;;;;;;;35.00;26.30;;;;;;5057174;28;20008;-73
2022/11/02 13:23:24;;;;;;;;;;;35.10;26.40;;;;;;5058545;28;20016;-74
2022/11/02 13:25:51;;;;;;;;;;;35.10;26.40;;;;;;5054752;28;19973;-72
2022/11/02 13:28:26;;;;;;;;;;;35.10;26.50;;;;;;5051074;28;19952;-71
2022/11/02 13:30:56;;;;;;;;;;;34.60;26.70;;;;;;5038536;28;19920;-76
2022/11/02 13:33:26;;;;;;;;;;;33.90;27.20;;;;;;5075677;28;19927;-77
2022/11/02 13:35:53;;;;;;;;;;;33.20;27.60;;;;;;5064255;28;20012;-76
2022/11/02 13:38:24;;;;;;;;;;;32.70;28.10;;;;;;5065542;28;19921;-77
2022/11/02 13:40:54;;;;;;;;;;;32.10;28.60;;;;;;5081544;28;19973;-79
2022/11/02 13:43:36;;;;;;;;;;;31.60;29.00;;;;;;5065070;28;19942;-77
2022/11/02 13:46:08;;;;;;;;;;;31.10;29.50;;;;;;5071808;28;19943;-77
2022/11/02 13:48:49;;;;;;;;;;;30.60;30.00;;;;;;5061222;28;19933;-79
2022/11/02 13:51:19;;;;;;;;;;;30.10;30.50;;;;;;5060676;28;19967;-79
2022/11/02 13:53:48;;;;;;;;;;;29.70;31.20;;;;;;5078278;28;19943;-77
2022/11/02 13:56:20;;;;;;;;;;;29.30;31.70;;;;;;5084449;28;19909;-78
2022/11/02 13:58:47;;;;;;;;;;;28.90;32.20;;;;;;5060859;28;19974;-78
2022/11/02 14:01:15;;;;;;;;;;;28.60;32.70;;;;;;5060919;28;19924;-77
2022/11/02 14:03:47;;;;;;;;;;;28.40;33.20;;;;;;5055131;28;19924;-79
2022/11/02 14:06:14;;;;;;;;;;;28.10;33.70;;;;;;5074403;28;19924;-77
2022/11/02 14:08:41;;;;;;;;;;;27.80;34.10;;;;;;5069229;28;19920;-77
2022/11/02 14:11:24;;;;;;;;;;;27.60;34.40;;;;;;5055122;28;19924;-76
2022/11/02 14:14:07;;;;;;;;;;;27.40;34.80;;;;;;5074001;28;19920;-77
2022/11/02 14:16:40;;;;;;;;;;;27.10;35.20;;;;;;5073930;28;19925;-78
2022/11/02 14:19:19;;;;;;;;;;;27.00;35.50;;;;;;5076893;28;19921;-77
2022/11/02 14:22:04;;;;;;;;;;;26.80;35.90;;;;;;5057325;28;20378;-76
2022/11/02 14:24:52;;;;;;;;;;;26.60;36.10;;;;;;5057313;28;20011;-78
2022/11/02 14:27:28;;;;;;;;;;;26.50;36.40;;;;;;5066926;28;19921;-80
2022/11/02 14:29:55;;;;;;;;;;;26.40;36.70;;;;;;5053191;28;19924;-70
2022/11/02 14:32:23;;;;;;;;;;;26.20;36.90;;;;;;5055914;28;19974;-72
2022/11/02 14:34:54;;;;;;;;;;;26.10;37.10;;;;;;5058114;28;20365;-71
2022/11/02 14:37:25;;;;;;;;;;;26.00;36.50;;;;;;5053730;28;19920;-76